Terminal Aerodrome Forecast
Issued by NWS

Home | Current Version | Previous Version | Text Only | Print | Product List | Glossary On
Versions: 1 2 3 4 5 6 7 8 9 10 11 12 13 14 15 16
000
FTUS44 KLIX 261522 AAA
TAFMCB
TAF AMD
KMCB 261522Z 2615/2712 09004KT P6SM VCSH SCT015 BKN050
      TEMPO 2615/2617 BKN015
     FM261800 08005KT P6SM VCTS SCT015CB BKN025
     FM270000 VRB03KT P6SM BKN060=

USA.gov is the U.S. government's official web portal to all federal, state and local government web resources and services.